Terminal Aerodrome Forecast
Issued by NWS Charleston, WV

Current Version | Previous Version | Graphics & Text | Print | Product List | Glossary On
Versions: 1 2 3 4 5 6 7 8 9 10 11 12 13 14 15 16 17 18 19 20 21 22
000
FTUS41 KRLX 071040 AAB
TAFCRW
TAF AMD
KCRW 071040Z 0711/0806 26004KT P6SM SCT015 OVC025
      TEMPO 0711/0713 BKN035
     FM071300 26004KT P6SM OVC025
      TEMPO 0713/0716 BKN015
     FM071600 VRB03KT P6SM BKN050
     FM072000 00000KT P6SM SCT120
     FM080500 00000KT P6SM BKN100=

USA.gov is the U.S. government's official web portal to all federal, state and local government web resources and services.